Time;durP1;ratioP1;P1;durP2;ratioP2;P2;SDS_P1;SDS_P2;PMS_P1;PMS_P2;Temp;Humidity;BMP_temperature;BMP_pressure;BME280_temperature;BME280_humidity;BME280_pressure;Samples;Min_cycle;Max_cycle;Signal;HPM_P1;HPM_P2
2022/04/28 00:00:12;;;;;;;13.63;7.03;;;;;;;8.46;60.90;102623.59;3579714;40;20063;-60
2022/04/28 00:02:38;;;;;;;11.13;5.78;;;;;;;8.43;61.48;102629.91;3582496;40;20133;-63
2022/04/28 00:05:07;;;;;;;14.18;6.18;;;;;;;8.35;61.43;102616.66;3582700;40;20484;-60
2022/04/28 00:07:34;;;;;;;9.45;5.82;;;;;;;8.42;61.50;102635.31;3582422;39;20052;-63
2022/04/28 00:10:00;;;;;;;14.43;5.85;;;;;;;8.14;61.57;102585.88;3584086;40;20051;-63
2022/04/28 00:12:26;;;;;;;10.95;6.10;;;;;;;8.32;61.34;102626.56;3580282;40;20056;-62
2022/04/28 00:14:52;;;;;;;13.02;6.28;;;;;;;8.33;61.89;102641.72;3581734;40;20060;-62
2022/04/28 00:17:17;;;;;;;11.55;5.47;;;;;;;8.30;61.72;102633.75;3573724;40;20321;-61
2022/04/28 00:19:43;;;;;;;13.35;6.32;;;;;;;8.27;62.17;102639.19;3589036;40;20055;-63
2022/04/28 00:22:09;;;;;;;12.38;5.72;;;;;;;8.12;62.13;102614.53;3584783;39;20140;-59
2022/04/28 00:24:34;;;;;;;11.88;6.30;;;;;;;8.26;61.90;102638.31;3581169;40;20064;-63
2022/04/28 00:27:00;;;;;;;17.58;6.00;;;;;;;8.20;61.89;102634.91;3586604;39;20055;-61
2022/04/28 00:29:26;;;;;;;14.95;6.30;;;;;;;8.10;62.53;102621.72;3586622;40;20049;-62
2022/04/28 00:31:51;;;;;;;12.07;5.75;;;;;;;8.19;62.70;102635.81;3581416;40;20048;-61
2022/04/28 00:34:17;;;;;;;12.10;5.88;;;;;;;8.09;62.26;102628.00;3585344;39;20315;-60
2022/04/28 00:36:42;;;;;;;10.52;5.88;;;;;;;8.09;62.34;102629.78;3590387;39;20071;-62
2022/04/28 00:39:08;;;;;;;12.95;6.15;;;;;;;7.95;62.57;102611.34;3584811;40;20128;-59
2022/04/28 00:41:33;;;;;;;12.52;6.25;;;;;;;8.04;62.58;102632.56;3585623;40;20161;-61
2022/04/28 00:44:00;;;;;;;11.15;6.13;;;;;;;7.99;62.56;102621.09;3584544;39;20056;-60
2022/04/28 00:46:25;;;;;;;12.07;5.57;;;;;;;7.86;62.89;102603.50;3573675;40;20086;-62
2022/04/28 00:51:37;;;;;;;19.20;6.57;;;;;;;7.91;63.45;102628.41;3584704;40;20086;-62
2022/04/28 00:54:04;;;;;;;13.00;6.75;;;;;;;7.85;63.57;102626.72;3583884;39;20129;-59
2022/04/28 00:56:31;;;;;;;11.60;6.15;;;;;;;7.74;63.66;102612.69;3581904;40;20056;-62
2022/04/28 00:59:02;;;;;;;12.32;6.10;;;;;;;7.85;63.96;102632.06;3587096;39;20421;-62
2022/04/28 01:01:32;;;;;;;11.80;6.40;;;;;;;7.84;63.57;102626.78;3575976;40;20060;-63
2022/04/28 01:04:00;;;;;;;12.13;6.18;;;;;;;7.83;63.89;102623.22;3584775;39;20044;-63
2022/04/28 01:06:26;;;;;;;12.35;6.32;;;;;;;7.78;63.52;102618.88;3581428;40;20117;-61
2022/04/28 01:08:52;;;;;;;14.63;6.40;;;;;;;7.85;63.54;102620.50;3585085;40;20274;-62
2022/04/28 01:11:19;;;;;;;11.98;6.30;;;;;;;7.68;63.67;102597.66;3581048;40;20052;-60
2022/04/28 01:13:45;;;;;;;12.18;6.05;;;;;;;7.22;63.61;102523.69;3585880;39;20088;-61
2022/04/28 01:16:13;;;;;;;11.30;6.18;;;;;;;7.39;63.36;102568.81;3582281;40;20558;-61
2022/04/28 01:18:39;;;;;;;16.13;6.97;;;;;;;7.73;63.94;102626.97;3565840;40;20052;-61
2022/04/28 01:21:07;;;;;;;12.20;6.13;;;;;;;7.67;63.94;102633.38;3585369;40;20339;-60
2022/04/28 01:23:35;;;;;;;11.85;6.30;;;;;;;7.63;64.07;102630.78;3577037;40;20692;-61
2022/04/28 01:26:01;;;;;;;14.70;6.55;;;;;;;7.61;64.38;102636.16;3585364;40;20047;-62
2022/04/28 01:28:28;;;;;;;17.92;6.78;;;;;;;7.57;64.37;102631.75;3584521;40;20789;-62
2022/04/28 01:30:54;;;;;;;13.02;6.45;;;;;;;7.56;64.70;102629.13;3580305;39;20090;-61
2022/04/28 01:33:20;;;;;;;15.27;6.88;;;;;;;7.47;64.76;102616.81;3574863;40;20079;-62
2022/04/28 01:35:46;;;;;;;15.25;7.22;;;;;;;7.49;64.77;102628.38;3583570;40;20056;-62
2022/04/28 01:38:12;;;;;;;12.18;6.63;;;;;;;7.48;64.92;102623.03;3579567;40;20133;-60
2022/04/28 01:40:38;;;;;;;13.13;6.70;;;;;;;7.48;64.51;102626.59;3584128;40;20070;-62
2022/04/28 01:43:04;;;;;;;15.95;6.70;;;;;;;7.46;64.50;102630.25;3581554;39;20048;-60
2022/04/28 01:45:29;;;;;;;12.13;6.97;;;;;;;7.45;64.49;102632.00;3580928;40;20589;-61
2022/04/28 01:47:55;;;;;;;12.10;6.68;;;;;;;7.43;64.89;102623.16;3582412;39;20044;-62
2022/04/28 01:50:21;;;;;;;15.52;7.25;;;;;;;7.38;65.06;102625.03;3570255;40;20052;-62
2022/04/28 01:55:31;;;;;;;14.68;7.28;;;;;;;7.34;64.73;102620.66;3582221;39;20822;-61
2022/04/28 01:57:58;;;;;;;17.48;7.10;;;;;;;7.29;64.62;102619.84;3581453;39;20056;-62
2022/04/28 02:00:24;;;;;;;14.85;7.20;;;;;;;7.26;65.38;102620.78;3581020;39;20048;-60
2022/04/28 02:02:49;;;;;;;13.90;6.70;;;;;;;7.10;65.67;102597.91;3583435;39;20079;-62
2022/04/28 02:05:15;;;;;;;12.02;7.70;;;;;;;7.22;65.99;102625.31;3573330;40;20072;-60
2022/04/28 02:07:42;;;;;;;14.30;7.18;;;;;;;7.21;65.51;102634.25;3582066;40;20064;-62
2022/04/28 02:10:09;;;;;;;11.50;7.20;;;;;;;7.21;65.74;102636.94;3583650;40;21218;-60
2022/04/28 02:12:34;;;;;;;19.38;7.70;;;;;;;7.18;65.53;102631.63;3583514;40;20052;-62
2022/04/28 02:15:00;;;;;;;14.57;7.30;;;;;;;7.17;65.87;102632.56;3585319;39;20140;-60
2022/04/28 02:17:29;;;;;;;12.40;7.28;;;;;;;7.19;65.68;102636.06;3581075;40;20052;-62
2022/04/28 02:19:55;;;;;;;9.73;6.97;;;;;;;7.19;65.77;102630.72;3576450;40;20048;-61
2022/04/28 02:22:21;;;;;;;14.93;7.28;;;;;;;7.15;65.70;102634.38;3582323;40;20596;-62
2022/04/28 02:24:47;;;;;;;13.52;7.13;;;;;;;7.11;65.58;102621.09;3580386;39;20390;-62
2022/04/28 02:27:13;;;;;;;14.20;7.60;;;;;;;7.06;65.54;102612.28;3583378;39;20123;-60
2022/04/28 02:29:39;;;;;;;11.27;7.20;;;;;;;7.08;66.04;102619.34;3583904;40;20063;-62
2022/04/28 02:32:05;;;;;;;12.60;7.15;;;;;;;7.08;65.92;102627.38;3584186;39;20059;-60
2022/04/28 02:34:31;;;;;;;14.15;7.70;;;;;;;7.09;65.57;102633.59;3578573;39;20236;-61
2022/04/28 02:36:57;;;;;;;15.02;7.38;;;;;;;6.83;66.08;102591.31;3592497;39;20062;-62
2022/04/28 02:39:23;;;;;;;13.40;7.28;;;;;;;7.09;65.55;102633.59;3582669;40;20048;-64
2022/04/28 02:41:49;;;;;;;15.65;7.78;;;;;;;7.06;65.66;102631.88;3590063;39;20071;-62
2022/04/28 02:44:14;;;;;;;18.77;7.85;;;;;;;7.05;65.91;102635.47;3579186;39;20052;-60
2022/04/28 02:46:48;;;;;;;14.85;7.47;;;;;;;7.02;66.08;102627.50;3587661;40;20463;-61
2022/04/28 02:49:17;;;;;;;17.63;7.55;;;;;;;7.00;65.96;102621.28;3565342;40;21247;-60
2022/04/28 02:51:43;;;;;;;13.98;7.72;;;;;;;6.88;66.11;102600.09;3587287;40;20041;-61
2022/04/28 02:54:10;;;;;;;10.57;6.78;;;;;;;6.80;65.88;102594.91;3583069;39;20078;-60
2022/04/28 02:56:35;;;;;;;15.90;8.10;;;;;;;6.95;66.10;102626.72;3583737;39;20092;-62
2022/04/28 02:59:02;;;;;;;16.58;7.85;;;;;;;6.94;66.07;102629.41;3583809;39;20141;-60
2022/04/28 03:01:27;;;;;;;15.68;8.15;;;;;;;6.92;66.11;102624.09;3581335;40;20063;-62
2022/04/28 03:03:54;;;;;;;14.73;7.90;;;;;;;6.73;66.01;102598.59;3583926;39;20059;-63
2022/04/28 03:11:53;;;;;;;12.32;7.55;;;;;;;6.83;66.65;102626.94;3585382;40;20058;-61
2022/04/28 03:14:21;;;;;;;16.15;8.25;;;;;;;6.74;66.43;102611.94;3583349;39;20056;-62
2022/04/28 03:16:47;;;;;;;13.43;7.97;;;;;;;6.76;66.56;102619.94;3584657;39;20055;-61
2022/04/28 03:19:13;;;;;;;15.90;8.70;;;;;;;6.70;66.56;102607.56;3585952;40;20047;-60
2022/04/28 03:21:38;;;;;;;16.38;8.10;;;;;;;6.72;66.08;102611.09;3578649;40;20056;-60
2022/04/28 03:24:05;;;;;;;16.83;8.00;;;;;;;6.77;66.49;102626.16;3586705;39;20074;-61
2022/04/28 03:26:31;;;;;;;18.27;8.13;;;;;;;6.76;66.83;102633.28;3585602;40;20064;-62
2022/04/28 03:28:58;;;;;;;15.07;8.57;;;;;;;6.71;66.76;102621.78;3588492;39;20055;-60
2022/04/28 03:31:23;;;;;;;16.38;8.50;;;;;;;6.72;66.92;102629.78;3581523;39;20095;-62
2022/04/28 03:33:49;;;;;;;13.18;8.10;;;;;;;6.71;66.95;102630.69;3588118;39;20125;-61
2022/04/28 03:38:59;;;;;;;15.63;8.55;;;;;;;6.62;66.67;102617.47;3586879;39;20160;-61
2022/04/28 03:41:25;;;;;;;15.13;8.52;;;;;;;6.65;67.00;102622.78;3585589;40;20635;-62
2022/04/28 03:43:51;;;;;;;17.92;8.50;;;;;;;6.49;66.40;102600.75;3589032;39;20113;-63
2022/04/28 03:46:18;;;;;;;14.57;8.82;;;;;;;6.63;66.91;102624.59;3584877;39;20086;-61
2022/04/28 03:48:44;;;;;;;15.50;8.30;;;;;;;6.57;66.62;102623.81;3578237;40;20299;-61
2022/04/28 03:51:11;;;;;;;13.90;7.85;;;;;;;6.58;66.52;102620.22;3580946;39;20101;-60
2022/04/28 03:53:37;;;;;;;19.00;8.32;;;;;;;6.61;66.50;102641.56;3577514;39;20134;-62
2022/04/28 03:56:04;;;;;;;17.15;8.95;;;;;;;6.58;66.88;102642.50;3586897;40;20391;-60
2022/04/28 03:58:29;;;;;;;20.60;8.20;;;;;;;6.57;66.75;102643.41;3585209;39;20063;-62
2022/04/28 04:00:55;;;;;;;13.13;8.43;;;;;;;6.61;67.09;102647.78;3589186;39;20075;-62
2022/04/28 04:03:20;;;;;;;16.48;8.88;;;;;;;6.61;66.68;102647.78;3585851;39;20094;-61
2022/04/28 04:05:47;;;;;;;17.65;8.23;;;;;;;6.52;66.81;102631.91;3583649;39;20048;-61
2022/04/28 04:08:14;;;;;;;16.85;9.18;;;;;;;6.58;67.13;102644.28;3576577;40;20099;-60
2022/04/28 04:10:41;;;;;;;17.40;8.57;;;;;;;6.55;67.08;102641.66;3587344;40;20459;-62
2022/04/28 04:13:08;;;;;;;18.65;9.02;;;;;;;6.51;67.15;102641.72;3587810;40;20052;-65
2022/04/28 04:15:33;;;;;;;17.45;8.75;;;;;;;6.51;66.99;102646.19;3629747;22;20039;-64
2022/04/28 04:18:00;;;;;;;19.15;9.15;;;;;;;6.49;67.13;102650.66;3591818;39;20091;-63
2022/04/28 04:20:27;;;;;;;18.58;9.05;;;;;;;6.50;67.24;102645.28;3592832;39;20095;-64
2022/04/28 04:22:54;;;;;;;16.98;8.88;;;;;;;6.49;67.23;102648.84;3589937;39;20040;-64
2022/04/28 04:25:21;;;;;;;18.83;8.90;;;;;;;6.50;67.32;102649.72;3573963;39;20040;-64
2022/04/28 04:27:47;;;;;;;17.73;8.93;;;;;;;6.49;67.46;102651.53;3586376;40;20410;-64
2022/04/28 04:32:58;;;;;;;16.90;9.70;;;;;;;6.45;67.49;102651.59;3587344;40;20046;-65
2022/04/28 04:35:24;;;;;;;14.35;9.32;;;;;;;6.43;67.99;102653.41;3584948;39;20317;-64
2022/04/28 04:37:54;;;;;;;19.92;10.40;;;;;;;6.45;67.76;102651.59;3588631;40;20047;-63
2022/04/28 04:40:21;;;;;;;21.40;12.73;;;;;;;6.44;68.14;102661.41;3572396;40;20689;-64
2022/04/28 04:42:47;;;;;;;18.80;10.73;;;;;;;6.43;67.74;102656.97;3583738;40;20048;-63
2022/04/28 04:45:13;;;;;;;21.23;10.25;;;;;;;6.44;67.93;102660.53;3583406;39;20095;-63
2022/04/28 04:47:39;;;;;;;19.80;10.48;;;;;;;6.28;67.96;102633.19;3588311;40;20087;-62
2022/04/28 04:50:08;;;;;;;20.83;9.80;;;;;;;6.47;67.89;102671.16;3584269;40;20052;-63
2022/04/28 04:52:34;;;;;;;21.98;9.90;;;;;;;6.34;68.10;102637.53;3585556;40;20105;-63
2022/04/28 04:55:01;;;;;;;20.15;10.20;;;;;;;6.43;67.46;102654.28;3575187;39;20307;-60
2022/04/28 04:57:27;;;;;;;19.58;10.32;;;;;;;6.52;67.86;102674.66;3582389;40;20619;-61
2022/04/28 04:59:53;;;;;;;18.75;9.75;;;;;;;6.54;67.76;102670.16;3589937;40;20051;-63
2022/04/28 05:02:19;;;;;;;17.20;10.07;;;;;;;6.49;67.61;102667.56;3587103;40;20468;-61
2022/04/28 05:04:45;;;;;;;15.65;10.15;;;;;;;6.60;68.21;102683.44;3589314;40;20079;-61
2022/04/28 05:07:11;;;;;;;16.08;9.60;;;;;;;6.71;67.37;102675.25;3586697;40;20109;-60
2022/04/28 05:09:37;;;;;;;18.63;10.02;;;;;;;6.71;67.57;102676.13;3578044;40;20228;-62
2022/04/28 05:12:05;;;;;;;17.58;9.57;;;;;;;6.83;66.91;102685.75;3583781;40;20117;-60
2022/04/28 05:14:31;;;;;;;17.83;10.30;;;;;;;6.94;66.95;102696.25;3583181;39;20157;-64
2022/04/28 05:16:58;;;;;;;18.35;10.38;;;;;;;7.05;66.51;102694.28;3588742;40;20125;-62
2022/04/28 05:19:24;;;;;;;16.10;10.55;;;;;;;7.20;66.31;102699.38;3585911;40;20071;-61
2022/04/28 05:21:50;;;;;;;17.33;9.85;;;;;;;7.30;65.56;102699.22;3588689;40;20117;-62
2022/04/28 05:24:16;;;;;;;18.83;10.70;;;;;;;7.36;65.35;102699.97;3579245;39;20362;-63
2022/04/28 05:26:42;;;;;;;17.40;10.82;;;;;;;7.37;65.45;102703.53;3578833;40;20047;-61
2022/04/28 05:29:07;;;;;;;17.63;10.48;;;;;;;7.34;65.64;102699.13;3583156;40;20051;-63
2022/04/28 05:31:33;;;;;;;17.27;10.90;;;;;;;7.34;65.60;102698.22;3587696;40;20055;-63
2022/04/28 05:33:58;;;;;;;21.00;11.30;;;;;;;7.31;66.08;102709.88;3586502;39;20052;-62
2022/04/28 05:36:26;;;;;;;21.95;11.30;;;;;;;7.18;66.17;102685.13;3585895;40;20667;-61
2022/04/28 05:38:52;;;;;;;19.38;11.05;;;;;;;7.27;66.53;102700.13;3589443;40;20069;-63
2022/04/28 05:41:18;;;;;;;17.48;11.35;;;;;;;7.26;66.07;102706.38;3569332;40;20055;-62
2022/04/28 05:46:28;;;;;;;19.70;10.88;;;;;;;7.37;66.41;102715.09;3583930;40;20120;-63
2022/04/28 05:48:54;;;;;;;18.27;11.20;;;;;;;7.41;66.09;102721.28;3588966;40;20044;-63
2022/04/28 05:51:20;;;;;;;19.73;11.07;;;;;;;7.42;66.15;102713.25;3583336;40;20765;-63
2022/04/28 05:53:45;;;;;;;21.27;11.25;;;;;;;7.44;66.47;102722.09;3587762;39;20379;-63
2022/04/28 05:56:11;;;;;;;21.90;11.25;;;;;;;7.48;66.54;102730.94;3576839;40;20058;-62
2022/04/28 05:58:36;;;;;;;23.23;11.93;;;;;;;7.57;66.14;102730.78;3568920;40;20091;-63
2022/04/28 06:01:02;;;;;;;19.83;11.65;;;;;;;7.63;66.10;102733.34;3585839;40;20097;-62
2022/04/28 06:03:28;;;;;;;19.55;11.55;;;;;;;7.52;65.88;102702.38;3586469;40;20441;-64
2022/04/28 06:05:53;;;;;;;19.52;11.32;;;;;;;7.78;65.87;102731.31;3586850;40;20417;-65
2022/04/28 06:08:19;;;;;;;22.45;11.73;;;;;;;7.86;66.26;102734.69;3587242;40;20056;-63
2022/04/28 06:10:45;;;;;;;20.48;11.38;;;;;;;7.94;65.40;102739.91;3589775;40;20047;-64
2022/04/28 06:13:10;;;;;;;19.98;11.65;;;;;;;8.03;65.35;102740.63;3569217;40;20055;-62
2022/04/28 06:15:36;;;;;;;22.02;11.63;;;;;;;8.07;64.56;102744.97;3583363;39;20606;-63
2022/04/28 06:18:02;;;;;;;17.25;11.27;;;;;;;8.17;64.86;102745.66;3588010;40;20048;-62
2022/04/28 06:20:27;;;;;;;19.70;11.40;;;;;;;8.28;64.90;102753.50;3576043;40;20780;-63
2022/04/28 06:22:53;;;;;;;18.55;10.95;;;;;;;8.38;64.34;102749.75;3590256;40;20054;-63
2022/04/28 06:25:19;;;;;;;19.92;11.60;;;;;;;8.50;64.29;102754.84;3584705;39;20100;-63
2022/04/28 06:27:45;;;;;;;19.85;11.60;;;;;;;8.60;63.50;102759.06;3579706;40;20059;-64
2022/04/28 06:30:11;;;;;;;18.52;10.88;;;;;;;8.75;62.98;102756.94;3578777;40;20406;-61
2022/04/28 06:32:37;;;;;;;21.13;10.38;;;;;;;8.87;63.25;102743.25;3587111;40;20052;-62
2022/04/28 06:35:04;;;;;;;19.85;11.18;;;;;;;8.87;62.49;102703.00;3584018;39;20048;-61
2022/04/28 06:37:30;;;;;;;20.50;10.27;;;;;;;9.51;61.22;102760.44;3584943;40;20067;-63
2022/04/28 06:39:55;;;;;;;18.27;10.38;;;;;;;9.84;61.62;102764.91;3589923;40;20052;-63
2022/04/28 06:42:21;;;;;;;16.83;10.73;;;;;;;10.16;59.67;102762.19;3586849;40;20568;-63
2022/04/28 06:44:47;;;;;;;17.90;9.75;;;;;;;10.33;59.53;102759.03;3576345;40;20056;-62
2022/04/28 06:47:13;;;;;;;18.95;10.75;;;;;;;10.59;57.98;102765.44;3583614;40;20071;-61
2022/04/28 06:49:38;;;;;;;19.35;10.70;;;;;;;10.80;57.58;102764.75;3588326;40;20318;-63
2022/04/28 06:52:04;;;;;;;17.23;10.70;;;;;;;10.96;57.32;102758.91;3587226;40;20044;-62
2022/04/28 06:54:30;;;;;;;18.05;9.70;;;;;;;11.16;56.17;102767.19;3583602;39;20071;-63
2022/04/28 06:56:55;;;;;;;15.88;10.05;;;;;;;11.36;56.11;102766.53;3587131;40;20058;-63
2022/04/28 06:59:21;;;;;;;18.02;9.55;;;;;;;11.55;56.12;102770.34;3577528;40;20071;-62
2022/04/28 07:01:47;;;;;;;17.17;9.45;;;;;;;11.77;55.09;102767.78;3581900;40;20062;-62
2022/04/28 07:04:13;;;;;;;14.15;9.50;;;;;;;11.95;53.66;102768.94;3581865;39;20052;-61
2022/04/28 07:06:39;;;;;;;16.30;8.85;;;;;;;12.01;53.77;102778.63;3588327;40;20052;-63
2022/04/28 07:09:04;;;;;;;17.80;9.57;;;;;;;12.16;54.29;102771.81;3586080;40;20052;-61
2022/04/28 07:11:30;;;;;;;17.20;8.90;;;;;;;12.29;52.85;102787.47;3587861;40;20695;-64
2022/04/28 07:13:55;;;;;;;18.45;8.38;;;;;;;12.43;52.62;102788.75;3576991;40;20392;-62
2022/04/28 07:16:21;;;;;;;16.77;8.88;;;;;;;12.53;51.49;102782.09;3569739;40;20056;-63
2022/04/28 07:18:46;;;;;;;18.02;8.75;;;;;;;12.79;51.75;102794.53;3584799;40;20047;-64
2022/04/28 07:21:12;;;;;;;14.93;9.27;;;;;;;12.93;50.62;102804.78;3586247;40;20052;-63
2022/04/28 07:23:38;;;;;;;16.23;9.57;;;;;;;13.14;51.14;102801.22;3586370;40;20060;-62
2022/04/28 07:26:03;;;;;;;15.55;9.02;;;;;;;13.29;49.97;102804.25;3587327;40;20453;-62
2022/04/28 07:28:29;;;;;;;16.60;8.90;;;;;;;13.37;49.61;102802.13;3587984;40;20853;-63
2022/04/28 07:30:55;;;;;;;17.27;8.75;;;;;;;13.43;49.28;102807.28;3579294;40;20307;-63
2022/04/28 07:33:20;;;;;;;16.40;9.10;;;;;;;13.59;48.89;102813.78;3578206;39;20117;-62
2022/04/28 07:35:46;;;;;;;13.70;7.85;;;;;;;13.80;48.66;102803.00;3586235;40;20056;-63
2022/04/28 07:38:11;;;;;;;13.60;8.65;;;;;;;13.96;48.34;102801.38;3585044;40;20044;-62
2022/04/28 07:40:37;;;;;;;18.77;8.63;;;;;;;14.10;48.08;102803.44;3589234;40;20081;-62
2022/04/28 07:43:04;;;;;;;19.15;8.82;;;;;;;14.17;47.08;102815.72;3588939;40;20271;-62
2022/04/28 07:45:30;;;;;;;22.20;8.85;;;;;;;14.22;47.67;102811.00;3585242;39;20059;-63
2022/04/28 07:47:56;;;;;;;16.15;8.32;;;;;;;14.36;47.44;102813.94;3573577;40;20063;-62
2022/04/28 07:50:23;;;;;;;15.27;9.00;;;;;;;14.38;47.20;102814.75;3580065;40;20662;-63
2022/04/28 07:52:49;;;;;;;14.45;7.75;;;;;;;14.56;46.85;102823.91;3587520;40;20096;-63
2022/04/28 07:55:14;;;;;;;17.98;8.45;;;;;;;14.78;46.20;102826.47;3586255;39;20052;-61
2022/04/28 07:57:41;;;;;;;17.40;8.50;;;;;;;14.82;45.14;102817.25;3589595;40;20051;-62
2022/04/28 08:00:09;;;;;;;13.63;8.48;;;;;;;14.98;45.34;102821.94;3584842;40;20873;-61
2022/04/28 08:02:38;;;;;;;15.50;8.10;;;;;;;15.02;44.63;102810.84;3578171;40;20066;-62
2022/04/28 08:05:06;;;;;;;13.07;7.47;;;;;;;15.23;44.53;102829.72;3582482;39;20322;-62
2022/04/28 08:07:33;;;;;;;13.35;7.88;;;;;;;15.31;44.15;102819.38;3584705;40;20105;-63
2022/04/28 08:09:59;;;;;;;15.77;8.10;;;;;;;15.59;43.58;102828.84;3589740;40;20052;-61
2022/04/28 08:12:24;;;;;;;16.00;7.60;;;;;;;15.53;43.67;102802.91;3586477;40;20062;-62
2022/04/28 08:14:50;;;;;;;14.93;7.32;;;;;;;15.86;42.90;102834.69;3587392;39;20052;-63
2022/04/28 08:17:16;;;;;;;13.95;7.50;;;;;;;15.92;42.52;102840.69;3577293;40;20044;-62
2022/04/28 08:19:42;;;;;;;13.98;7.70;;;;;;;15.96;43.74;102831.44;3575503;40;20125;-62
2022/04/28 08:22:08;;;;;;;18.30;8.40;;;;;;;16.24;42.08;102840.81;3578368;40;20048;-61
2022/04/28 08:24:35;;;;;;;15.63;7.05;;;;;;;16.31;42.16;102839.53;3587730;39;20068;-62
2022/04/28 08:27:01;;;;;;;15.40;7.35;;;;;;;16.24;41.84;102820.00;3589229;40;20055;-62
2022/04/28 08:29:26;;;;;;;15.85;7.22;;;;;;;16.46;41.33;102829.69;3586711;40;20075;-62
2022/04/28 08:31:52;;;;;;;19.42;13.93;;;;;;;16.62;41.19;102841.47;3589005;40;20302;-63
2022/04/28 08:34:19;;;;;;;13.45;8.18;;;;;;;16.67;40.84;102839.34;3576695;39;20062;-63
2022/04/28 08:36:46;;;;;;;16.20;7.88;;;;;;;16.64;41.38;102849.50;3584132;40;20054;-62
2022/04/28 08:39:12;;;;;;;12.60;7.68;;;;;;;16.30;40.95;102779.88;3587164;40;20079;-62
2022/04/28 08:41:42;;;;;;;15.63;7.68;;;;;;;16.88;40.17;102848.19;3588078;40;20401;-63
2022/04/28 08:44:26;;;;;;;13.65;7.60;;;;;;;17.08;39.83;102849.75;3584860;39;20056;-61
2022/04/28 08:46:54;;;;;;;12.15;7.50;;;;;;;17.23;40.76;102853.44;3586236;40;20125;-62
2022/04/28 08:49:30;;;;;;;19.00;9.93;;;;;;;17.26;40.26;102822.50;3577221;40;20836;-62
2022/04/28 08:51:59;;;;;;;17.45;8.15;;;;;;;17.66;39.61;102837.31;3585975;40;20383;-63
2022/04/28 08:54:27;;;;;;;15.90;7.95;;;;;;;17.83;38.59;102848.09;3586404;39;20113;-63
2022/04/28 08:56:55;;;;;;;17.83;7.88;;;;;;;17.91;38.86;102850.34;3587247;40;20060;-63
2022/04/28 08:59:23;;;;;;;19.08;8.02;;;;;;;18.09;37.96;102857.41;3585065;40;20552;-63
2022/04/28 09:01:50;;;;;;;24.90;15.27;;;;;;;18.22;38.63;102854.78;3588892;40;20101;-63
2022/04/28 09:04:17;;;;;;;13.73;7.35;;;;;;;18.29;36.97;102856.16;3586458;39;20479;-62
2022/04/28 09:06:44;;;;;;;15.80;9.45;;;;;;;18.37;38.20;102849.38;3575627;40;20071;-63
2022/04/28 09:09:16;;;;;;;13.75;7.57;;;;;;;18.39;36.65;102850.16;3585544;40;20051;-62
2022/04/28 09:11:44;;;;;;;15.52;8.02;;;;;;;18.56;37.02;102849.97;3587936;40;20048;-63
2022/04/28 09:14:13;;;;;;;16.83;7.63;;;;;;;18.69;36.84;102841.91;3586861;39;20128;-60
2022/04/28 09:16:46;;;;;;;14.45;8.48;;;;;;;18.93;36.54;102845.78;3579933;40;20112;-61
2022/04/28 09:19:23;;;;;;;14.90;7.82;;;;;;;18.85;37.95;102779.13;3581717;40;20298;-61
2022/04/28 09:21:53;;;;;;;16.48;7.90;;;;;;;19.14;36.60;102829.00;3575799;40;20065;-62
2022/04/28 09:24:21;;;;;;;16.00;7.53;;;;;;;19.43;35.40;102838.81;3580621;40;20675;-62
2022/04/28 09:26:48;;;;;;;14.77;8.38;;;;;;;19.40;35.84;102844.47;3586027;40;20349;-62
2022/04/28 09:29:17;;;;;;;13.85;8.32;;;;;;;19.43;34.92;102838.81;3586513;40;20382;-61
2022/04/28 09:31:45;;;;;;;13.07;8.18;;;;;;;19.43;37.07;102832.50;3588341;40;20052;-62
2022/04/28 09:34:18;;;;;;;13.07;7.93;;;;;;;19.43;34.69;102832.50;3579622;39;20399;-61
2022/04/28 09:36:46;;;;;;;14.07;8.40;;;;;;;19.40;35.00;102828.13;3573717;40;20048;-61
2022/04/28 09:42:29;;;;;;;17.73;8.40;;;;;;;19.36;35.16;102829.31;3574716;40;20054;-61
2022/04/28 09:44:55;;;;;;;17.23;9.15;;;;;;;19.45;36.68;102814.19;3588692;39;20435;-63
2022/04/28 09:47:23;;;;;;;15.43;8.30;;;;;;;19.63;34.80;102812.94;3570576;40;20047;-61
2022/04/28 09:49:55;;;;;;;13.93;8.38;;;;;;;19.80;34.05;102827.31;3587864;40;20060;-61
2022/04/28 09:52:24;;;;;;;15.85;7.63;;;;;;;19.79;34.10;102831.00;3575241;40;20177;-62
2022/04/28 09:54:59;;;;;;;16.95;8.48;;;;;;;19.65;35.56;102826.50;3580954;40;20064;-61
2022/04/28 09:57:26;;;;;;;15.15;8.75;;;;;;;19.70;37.26;102827.06;3581136;40;20313;-62
2022/04/28 09:59:58;;;;;;;13.73;7.55;;;;;;;19.60;35.06;102788.59;3589005;40;20044;-62
2022/04/28 10:02:26;;;;;;;16.85;11.23;;;;;;;20.07;35.04;102825.34;3586339;40;20060;-61
2022/04/28 10:04:54;;;;;;;11.95;7.50;;;;;;;20.05;33.47;102818.28;3589061;39;20108;-61
2022/04/28 10:07:22;;;;;;;11.95;8.00;;;;;;;19.86;33.89;102807.78;3573738;40;21627;-63
2022/04/28 10:09:51;;;;;;;12.85;7.50;;;;;;;19.96;35.33;102817.06;3583551;40;20043;-61
2022/04/28 10:12:25;;;;;;;13.65;7.38;;;;;;;20.08;35.31;102810.75;3576564;40;20526;-60
2022/04/28 10:14:54;;;;;;;15.07;7.32;;;;;;;20.24;34.38;102801.47;3625109;22;20048;-63
2022/04/28 10:18:01;;;;;;;13.40;7.43;;;;;;;20.42;33.08;102802.84;3595401;39;20099;-65
2022/04/28 10:20:35;;;;;;;13.23;7.80;;;;;;;20.47;32.05;102806.13;3597017;39;20457;-65
2022/04/28 10:23:07;;;;;;;13.60;7.25;;;;;;;20.55;32.35;102816.53;3580982;39;20050;-64
2022/04/28 10:34:15;;;;;;;14.93;9.63;;;;;;;20.25;32.79;102808.66;3586926;40;20120;-63
2022/04/28 10:37:11;;;;;;;27.23;15.07;;;;;;;20.21;31.72;102798.94;3588594;40;20060;-64
2022/04/28 10:39:45;;;;;;;15.43;7.80;;;;;;;20.21;31.76;102802.56;3576126;39;20117;-63
2022/04/28 10:42:40;;;;;;;12.88;7.65;;;;;;;20.26;32.37;102794.00;3587633;40;20044;-62
2022/04/28 10:45:25;;;;;;;12.15;7.30;;;;;;;20.34;31.60;102794.34;3586178;39;20094;-63
2022/04/28 10:48:43;;;;;;;13.40;8.07;;;;;;;20.52;31.76;102792.16;3578493;40;20396;-64
2022/04/28 10:51:16;;;;;;;14.57;8.27;;;;;;;20.41;32.46;102796.50;3581055;40;20096;-63
2022/04/28 10:54:03;;;;;;;13.63;9.60;;;;;;;20.51;32.20;102799.50;3588402;40;20105;-63
2022/04/28 10:56:56;;;;;;;14.02;7.93;;;;;;;20.71;33.35;102800.78;3573592;39;20662;-62
2022/04/28 10:59:29;;;;;;;17.85;11.70;;;;;;;20.46;32.28;102795.34;3585039;40;20076;-64
2022/04/28 11:02:19;;;;;;;15.33;8.13;;;;;;;20.61;32.22;102786.94;3590166;40;20145;-63
2022/04/28 11:05:03;;;;;;;11.38;7.68;;;;;;;20.69;31.40;102731.69;3584708;39;20113;-65
2022/04/28 11:07:31;;;;;;;11.95;7.13;;;;;;;21.19;32.13;102778.09;3590660;40;20066;-64
2022/04/28 11:10:00;;;;;;;14.18;8.02;;;;;;;21.43;30.82;102787.16;3590827;40;20052;-64
2022/04/28 11:12:35;;;;;;;12.75;8.90;;;;;;;21.55;32.05;102780.75;3571602;40;20062;-65
2022/04/28 11:15:06;;;;;;;13.25;7.45;;;;;;;21.58;30.98;102787.00;3589349;39;20366;-62
2022/04/28 11:17:36;;;;;;;11.93;7.85;;;;;;;21.75;30.46;102776.47;3587665;40;20060;-64
2022/04/28 11:20:12;;;;;;;14.57;8.80;;;;;;;21.81;31.79;102783.31;3587231;40;20109;-63
2022/04/28 11:22:42;;;;;;;11.48;8.23;;;;;;;21.91;31.24;102780.72;3586437;40;20163;-64
2022/04/28 11:25:14;;;;;;;10.15;7.90;;;;;;;21.88;30.53;102779.09;3589149;39;20424;-63
2022/04/28 11:27:41;;;;;;;8.93;8.02;;;;;;;21.97;30.62;102778.38;3569799;40;20067;-64
2022/04/28 11:30:15;;;;;;;14.18;8.05;;;;;;;21.96;29.75;102765.69;3584911;40;20058;-62
2022/04/28 11:32:58;;;;;;;10.32;7.22;;;;;;;22.09;30.75;102770.19;3589620;40;20048;-64
2022/04/28 11:35:35;;;;;;;12.32;7.45;;;;;;;22.11;29.79;102760.00;3587850;39;20879;-64
2022/04/28 11:38:02;;;;;;;14.13;7.70;;;;;;;22.39;32.43;102766.84;3589688;40;20088;-63
2022/04/28 11:40:30;;;;;;;13.13;8.38;;;;;;;22.37;30.35;102767.00;3587741;40;20683;-64
2022/04/28 11:43:02;;;;;;;14.00;8.40;;;;;;;22.40;29.03;102765.88;3569489;39;20488;-64
2022/04/28 11:45:31;;;;;;;15.07;8.43;;;;;;;22.56;29.35;102766.38;3584228;39;20055;-63
2022/04/28 11:48:03;;;;;;;14.93;9.85;;;;;;;22.75;29.62;102757.50;3587237;40;20469;-64
2022/04/28 11:50:32;;;;;;;14.77;8.63;;;;;;;22.94;28.91;102755.00;3575891;40;20055;-63
2022/04/28 11:53:09;;;;;;;11.82;8.55;;;;;;;23.03;29.90;102771.69;3590564;40;20047;-64